sensor_id;sensor_type;location;lat;lon;timestamp;P1;durP1;ratioP1;P2;durP2;ratioP2
75234;SDS011;63817;51.228;-1.472;2023-05-10T00:01:46;55.85;;;22.17;;
75234;SDS011;63817;51.228;-1.472;2023-05-10T00:04:12;48.85;;;20.88;;
75234;SDS011;63817;51.228;-1.472;2023-05-10T00:06:37;59.72;;;20.67;;
75234;SDS011;63817;51.228;-1.472;2023-05-10T00:09:02;51.15;;;22.23;;
75234;SDS011;63817;51.228;-1.472;2023-05-10T00:11:28;48.60;;;20.15;;
75234;SDS011;63817;51.228;-1.472;2023-05-10T00:13:54;48.13;;;20.42;;
75234;SDS011;63817;51.228;-1.472;2023-05-10T00:16:19;55.42;;;19.58;;
75234;SDS011;63817;51.228;-1.472;2023-05-10T00:18:44;48.40;;;19.25;;
75234;SDS011;63817;51.228;-1.472;2023-05-10T00:21:10;49.15;;;19.15;;
75234;SDS011;63817;51.228;-1.472;2023-05-10T00:23:35;48.33;;;20.50;;
75234;SDS011;63817;51.228;-1.472;2023-05-10T00:26:01;48.25;;;18.30;;
75234;SDS011;63817;51.228;-1.472;2023-05-10T00:28:27;44.63;;;17.70;;
75234;SDS011;63817;51.228;-1.472;2023-05-10T00:30:53;54.53;;;18.42;;
75234;SDS011;63817;51.228;-1.472;2023-05-10T00:33:18;55.90;;;19.20;;
75234;SDS011;63817;51.228;-1.472;2023-05-10T00:35:44;46.25;;;18.50;;
75234;SDS011;63817;51.228;-1.472;2023-05-10T00:38:09;44.63;;;16.77;;
75234;SDS011;63817;51.228;-1.472;2023-05-10T00:40:35;38.13;;;16.77;;
75234;SDS011;63817;51.228;-1.472;2023-05-10T00:43:02;50.10;;;19.73;;
75234;SDS011;63817;51.228;-1.472;2023-05-10T00:45:28;40.42;;;17.08;;
75234;SDS011;63817;51.228;-1.472;2023-05-10T00:47:54;42.80;;;16.80;;
75234;SDS011;63817;51.228;-1.472;2023-05-10T00:50:23;50.30;;;17.33;;
75234;SDS011;63817;51.228;-1.472;2023-05-10T00:52:49;42.53;;;17.95;;
75234;SDS011;63817;51.228;-1.472;2023-05-10T00:55:15;53.90;;;20.15;;
75234;SDS011;63817;51.228;-1.472;2023-05-10T00:57:40;43.65;;;17.10;;
75234;SDS011;63817;51.228;-1.472;2023-05-10T01:00:06;43.10;;;17.95;;
75234;SDS011;63817;51.228;-1.472;2023-05-10T01:02:33;54.95;;;18.02;;
75234;SDS011;63817;51.228;-1.472;2023-05-10T01:04:59;48.42;;;18.00;;
75234;SDS011;63817;51.228;-1.472;2023-05-10T01:07:25;58.63;;;19.42;;
75234;SDS011;63817;51.228;-1.472;2023-05-10T01:09:50;38.28;;;17.00;;
75234;SDS011;63817;51.228;-1.472;2023-05-10T01:12:16;44.88;;;18.73;;
75234;SDS011;63817;51.228;-1.472;2023-05-10T01:14:41;49.47;;;19.15;;
75234;SDS011;63817;51.228;-1.472;2023-05-10T01:17:06;51.30;;;19.65;;
75234;SDS011;63817;51.228;-1.472;2023-05-10T01:19:33;48.90;;;17.17;;
75234;SDS011;63817;51.228;-1.472;2023-05-10T01:33:00;38.85;;;17.05;;
75234;SDS011;63817;51.228;-1.472;2023-05-10T01:35:35;34.30;;;16.33;;
75234;SDS011;63817;51.228;-1.472;2023-05-10T01:40:35;57.40;;;17.48;;
75234;SDS011;63817;51.228;-1.472;2023-05-10T01:43:06;46.22;;;16.50;;
75234;SDS011;63817;51.228;-1.472;2023-05-10T01:45:34;38.00;;;17.38;;
75234;SDS011;63817;51.228;-1.472;2023-05-10T01:48:07;49.40;;;16.67;;
75234;SDS011;63817;51.228;-1.472;2023-05-10T01:50:35;43.28;;;17.92;;
75234;SDS011;63817;51.228;-1.472;2023-05-10T01:53:02;50.80;;;18.10;;
75234;SDS011;63817;51.228;-1.472;2023-05-10T01:55:33;49.47;;;17.33;;
75234;SDS011;63817;51.228;-1.472;2023-05-10T01:58:20;48.15;;;17.17;;
75234;SDS011;63817;51.228;-1.472;2023-05-10T02:00:50;53.65;;;17.38;;
75234;SDS011;63817;51.228;-1.472;2023-05-10T02:03:17;57.55;;;18.58;;
75234;SDS011;63817;51.228;-1.472;2023-05-10T02:05:46;47.65;;;18.73;;
75234;SDS011;63817;51.228;-1.472;2023-05-10T02:08:13;52.17;;;18.23;;
75234;SDS011;63817;51.228;-1.472;2023-05-10T02:10:39;55.83;;;19.00;;
75234;SDS011;63817;51.228;-1.472;2023-05-10T02:13:06;49.38;;;19.38;;
75234;SDS011;63817;51.228;-1.472;2023-05-10T02:15:32;52.90;;;20.17;;
75234;SDS011;63817;51.228;-1.472;2023-05-10T02:17:58;50.60;;;18.92;;
75234;SDS011;63817;51.228;-1.472;2023-05-10T02:20:25;47.63;;;20.23;;
75234;SDS011;63817;51.228;-1.472;2023-05-10T02:22:51;50.85;;;19.17;;
75234;SDS011;63817;51.228;-1.472;2023-05-10T02:25:18;52.55;;;19.92;;
75234;SDS011;63817;51.228;-1.472;2023-05-10T02:27:45;53.33;;;20.33;;
75234;SDS011;63817;51.228;-1.472;2023-05-10T02:30:11;52.35;;;20.63;;
75234;SDS011;63817;51.228;-1.472;2023-05-10T02:32:38;57.45;;;21.00;;
75234;SDS011;63817;51.228;-1.472;2023-05-10T02:35:04;49.83;;;20.75;;
75234;SDS011;63817;51.228;-1.472;2023-05-10T02:37:30;50.55;;;19.50;;
75234;SDS011;63817;51.228;-1.472;2023-05-10T02:39:55;55.47;;;21.05;;
75234;SDS011;63817;51.228;-1.472;2023-05-10T02:42:31;46.75;;;18.70;;
75234;SDS011;63817;51.228;-1.472;2023-05-10T02:45:01;49.70;;;19.48;;
75234;SDS011;63817;51.228;-1.472;2023-05-10T02:47:29;48.85;;;20.23;;
75234;SDS011;63817;51.228;-1.472;2023-05-10T02:49:55;54.25;;;19.95;;
75234;SDS011;63817;51.228;-1.472;2023-05-10T02:52:21;45.72;;;18.92;;
75234;SDS011;63817;51.228;-1.472;2023-05-10T02:54:49;49.90;;;20.98;;
75234;SDS011;63817;51.228;-1.472;2023-05-10T02:57:16;51.33;;;19.08;;
75234;SDS011;63817;51.228;-1.472;2023-05-10T02:59:45;60.10;;;21.00;;
75234;SDS011;63817;51.228;-1.472;2023-05-10T03:02:14;55.80;;;18.80;;
75234;SDS011;63817;51.228;-1.472;2023-05-10T03:04:39;47.80;;;19.00;;
75234;SDS011;63817;51.228;-1.472;2023-05-10T03:07:04;48.92;;;20.55;;
75234;SDS011;63817;51.228;-1.472;2023-05-10T03:09:30;44.92;;;19.25;;
75234;SDS011;63817;51.228;-1.472;2023-05-10T03:12:04;52.03;;;19.33;;
75234;SDS011;63817;51.228;-1.472;2023-05-10T03:17:48;51.50;;;19.90;;
75234;SDS011;63817;51.228;-1.472;2023-05-10T03:22:53;53.45;;;19.17;;
75234;SDS011;63817;51.228;-1.472;2023-05-10T03:25:21;46.60;;;20.35;;
75234;SDS011;63817;51.228;-1.472;2023-05-10T03:27:48;54.40;;;21.55;;
75234;SDS011;63817;51.228;-1.472;2023-05-10T03:30:13;61.55;;;21.70;;
75234;SDS011;63817;51.228;-1.472;2023-05-10T03:32:39;68.50;;;21.55;;
75234;SDS011;63817;51.228;-1.472;2023-05-10T03:35:08;48.28;;;20.55;;
75234;SDS011;63817;51.228;-1.472;2023-05-10T03:37:34;53.15;;;20.33;;
75234;SDS011;63817;51.228;-1.472;2023-05-10T03:40:00;50.85;;;21.45;;
75234;SDS011;63817;51.228;-1.472;2023-05-10T03:42:26;61.75;;;23.48;;
75234;SDS011;63817;51.228;-1.472;2023-05-10T03:44:51;48.08;;;22.10;;
75234;SDS011;63817;51.228;-1.472;2023-05-10T03:47:16;58.47;;;22.98;;
75234;SDS011;63817;51.228;-1.472;2023-05-10T03:49:42;62.88;;;22.65;;
75234;SDS011;63817;51.228;-1.472;2023-05-10T03:52:07;51.35;;;23.42;;
75234;SDS011;63817;51.228;-1.472;2023-05-10T03:54:32;48.72;;;23.80;;
75234;SDS011;63817;51.228;-1.472;2023-05-10T03:56:58;65.45;;;23.77;;
75234;SDS011;63817;51.228;-1.472;2023-05-10T03:59:25;49.85;;;23.75;;
75234;SDS011;63817;51.228;-1.472;2023-05-10T04:01:50;59.35;;;26.02;;
75234;SDS011;63817;51.228;-1.472;2023-05-10T04:04:16;62.55;;;25.15;;
75234;SDS011;63817;51.228;-1.472;2023-05-10T04:06:43;58.45;;;26.38;;
75234;SDS011;63817;51.228;-1.472;2023-05-10T04:09:08;58.20;;;25.20;;
75234;SDS011;63817;51.228;-1.472;2023-05-10T04:11:34;53.10;;;23.85;;
75234;SDS011;63817;51.228;-1.472;2023-05-10T04:13:59;57.95;;;25.10;;
75234;SDS011;63817;51.228;-1.472;2023-05-10T04:16:24;59.22;;;25.90;;
75234;SDS011;63817;51.228;-1.472;2023-05-10T04:18:50;62.28;;;25.60;;
75234;SDS011;63817;51.228;-1.472;2023-05-10T04:21:15;61.47;;;27.95;;
75234;SDS011;63817;51.228;-1.472;2023-05-10T04:23:41;57.00;;;25.67;;
75234;SDS011;63817;51.228;-1.472;2023-05-10T04:26:06;61.60;;;26.30;;
75234;SDS011;63817;51.228;-1.472;2023-05-10T04:28:32;61.65;;;26.10;;
75234;SDS011;63817;51.228;-1.472;2023-05-10T04:31:01;59.45;;;25.77;;
75234;SDS011;63817;51.228;-1.472;2023-05-10T04:33:27;65.20;;;25.75;;
75234;SDS011;63817;51.228;-1.472;2023-05-10T04:35:52;60.15;;;25.10;;
75234;SDS011;63817;51.228;-1.472;2023-05-10T04:38:18;59.40;;;25.35;;
75234;SDS011;63817;51.228;-1.472;2023-05-10T04:40:43;59.30;;;24.52;;
75234;SDS011;63817;51.228;-1.472;2023-05-10T04:43:08;56.83;;;24.85;;
75234;SDS011;63817;51.228;-1.472;2023-05-10T04:45:34;56.97;;;24.05;;
75234;SDS011;63817;51.228;-1.472;2023-05-10T04:47:59;53.65;;;22.58;;
75234;SDS011;63817;51.228;-1.472;2023-05-10T04:50:25;64.05;;;22.50;;
75234;SDS011;63817;51.228;-1.472;2023-05-10T04:52:50;54.20;;;21.50;;
75234;SDS011;63817;51.228;-1.472;2023-05-10T04:55:15;56.22;;;20.63;;
75234;SDS011;63817;51.228;-1.472;2023-05-10T04:57:41;42.35;;;21.63;;
75234;SDS011;63817;51.228;-1.472;2023-05-10T05:00:06;51.85;;;19.58;;
75234;SDS011;63817;51.228;-1.472;2023-05-10T05:02:32;50.67;;;19.50;;
75234;SDS011;63817;51.228;-1.472;2023-05-10T05:04:57;40.38;;;17.30;;
75234;SDS011;63817;51.228;-1.472;2023-05-10T05:07:23;45.53;;;17.40;;
75234;SDS011;63817;51.228;-1.472;2023-05-10T05:09:48;39.00;;;16.60;;
75234;SDS011;63817;51.228;-1.472;2023-05-10T05:12:14;52.47;;;19.23;;
75234;SDS011;63817;51.228;-1.472;2023-05-10T05:14:39;45.95;;;16.33;;
75234;SDS011;63817;51.228;-1.472;2023-05-10T05:17:06;42.03;;;15.90;;
75234;SDS011;63817;51.228;-1.472;2023-05-10T05:19:31;43.67;;;16.60;;
75234;SDS011;63817;51.228;-1.472;2023-05-10T05:21:57;37.42;;;14.75;;
75234;SDS011;63817;51.228;-1.472;2023-05-10T05:24:22;47.42;;;15.13;;
75234;SDS011;63817;51.228;-1.472;2023-05-10T05:26:48;36.75;;;14.77;;
75234;SDS011;63817;51.228;-1.472;2023-05-10T05:29:13;42.65;;;15.02;;
75234;SDS011;63817;51.228;-1.472;2023-05-10T05:31:39;49.13;;;14.45;;
75234;SDS011;63817;51.228;-1.472;2023-05-10T05:34:04;38.08;;;14.27;;
75234;SDS011;63817;51.228;-1.472;2023-05-10T05:36:30;32.45;;;13.50;;
75234;SDS011;63817;51.228;-1.472;2023-05-10T05:38:56;38.90;;;13.75;;
75234;SDS011;63817;51.228;-1.472;2023-05-10T05:41:22;29.13;;;13.18;;
75234;SDS011;63817;51.228;-1.472;2023-05-10T05:43:49;45.58;;;13.00;;
75234;SDS011;63817;51.228;-1.472;2023-05-10T05:46:14;36.88;;;12.45;;
75234;SDS011;63817;51.228;-1.472;2023-05-10T05:48:40;35.70;;;13.35;;
75234;SDS011;63817;51.228;-1.472;2023-05-10T05:51:05;43.25;;;12.15;;
75234;SDS011;63817;51.228;-1.472;2023-05-10T05:53:30;39.42;;;13.73;;
75234;SDS011;63817;51.228;-1.472;2023-05-10T05:55:57;35.80;;;12.65;;
75234;SDS011;63817;51.228;-1.472;2023-05-10T05:58:23;40.35;;;12.95;;
75234;SDS011;63817;51.228;-1.472;2023-05-10T06:00:49;43.65;;;13.32;;
75234;SDS011;63817;51.228;-1.472;2023-05-10T06:03:15;36.17;;;13.88;;
75234;SDS011;63817;51.228;-1.472;2023-05-10T06:05:41;38.75;;;13.93;;
75234;SDS011;63817;51.228;-1.472;2023-05-10T06:08:06;38.55;;;14.63;;
75234;SDS011;63817;51.228;-1.472;2023-05-10T06:10:31;42.13;;;14.13;;
75234;SDS011;63817;51.228;-1.472;2023-05-10T06:12:57;51.67;;;14.95;;
75234;SDS011;63817;51.228;-1.472;2023-05-10T06:15:22;50.50;;;15.25;;
75234;SDS011;63817;51.228;-1.472;2023-05-10T06:17:48;41.30;;;14.30;;
75234;SDS011;63817;51.228;-1.472;2023-05-10T06:20:14;47.08;;;15.77;;
75234;SDS011;63817;51.228;-1.472;2023-05-10T06:22:40;48.40;;;15.25;;
75234;SDS011;63817;51.228;-1.472;2023-05-10T06:25:06;38.13;;;14.88;;
75234;SDS011;63817;51.228;-1.472;2023-05-10T06:27:31;44.30;;;15.02;;
75234;SDS011;63817;51.228;-1.472;2023-05-10T06:29:57;49.17;;;15.65;;
75234;SDS011;63817;51.228;-1.472;2023-05-10T06:32:22;43.58;;;16.35;;
75234;SDS011;63817;51.228;-1.472;2023-05-10T06:34:48;50.33;;;16.10;;
75234;SDS011;63817;51.228;-1.472;2023-05-10T06:37:13;57.67;;;17.13;;
75234;SDS011;63817;51.228;-1.472;2023-05-10T06:39:38;39.67;;;14.77;;
75234;SDS011;63817;51.228;-1.472;2023-05-10T06:42:04;56.33;;;16.25;;
75234;SDS011;63817;51.228;-1.472;2023-05-10T06:44:30;35.30;;;16.27;;
75234;SDS011;63817;51.228;-1.472;2023-05-10T06:46:55;46.55;;;16.92;;
75234;SDS011;63817;51.228;-1.472;2023-05-10T06:49:21;55.17;;;17.17;;
75234;SDS011;63817;51.228;-1.472;2023-05-10T06:51:46;50.75;;;17.02;;
75234;SDS011;63817;51.228;-1.472;2023-05-10T06:54:12;42.60;;;15.50;;
75234;SDS011;63817;51.228;-1.472;2023-05-10T06:56:37;42.78;;;15.38;;
75234;SDS011;63817;51.228;-1.472;2023-05-10T06:59:02;51.40;;;15.07;;
75234;SDS011;63817;51.228;-1.472;2023-05-10T07:01:28;43.05;;;15.38;;
75234;SDS011;63817;51.228;-1.472;2023-05-10T07:03:53;44.35;;;17.25;;
75234;SDS011;63817;51.228;-1.472;2023-05-10T07:06:19;41.38;;;14.82;;
75234;SDS011;63817;51.228;-1.472;2023-05-10T07:08:44;41.78;;;13.57;;
75234;SDS011;63817;51.228;-1.472;2023-05-10T07:11:09;38.97;;;12.77;;
75234;SDS011;63817;51.228;-1.472;2023-05-10T07:13:35;37.78;;;12.63;;
75234;SDS011;63817;51.228;-1.472;2023-05-10T07:16:01;40.92;;;12.73;;
75234;SDS011;63817;51.228;-1.472;2023-05-10T07:18:31;47.92;;;13.35;;
75234;SDS011;63817;51.228;-1.472;2023-05-10T07:20:56;39.03;;;12.88;;
75234;SDS011;63817;51.228;-1.472;2023-05-10T07:23:22;41.58;;;11.40;;
75234;SDS011;63817;51.228;-1.472;2023-05-10T07:25:48;31.33;;;10.95;;
75234;SDS011;63817;51.228;-1.472;2023-05-10T07:28:14;30.85;;;11.93;;
75234;SDS011;63817;51.228;-1.472;2023-05-10T07:30:40;37.08;;;10.25;;
75234;SDS011;63817;51.228;-1.472;2023-05-10T07:33:06;36.08;;;8.35;;
75234;SDS011;63817;51.228;-1.472;2023-05-10T07:35:33;26.67;;;7.40;;
75234;SDS011;63817;51.228;-1.472;2023-05-10T07:37:58;26.70;;;8.55;;
75234;SDS011;63817;51.228;-1.472;2023-05-10T07:40:24;29.98;;;7.28;;
75234;SDS011;63817;51.228;-1.472;2023-05-10T07:42:49;33.33;;;6.70;;
75234;SDS011;63817;51.228;-1.472;2023-05-10T07:45:14;27.77;;;6.40;;
75234;SDS011;63817;51.228;-1.472;2023-05-10T07:47:40;37.20;;;7.25;;
75234;SDS011;63817;51.228;-1.472;2023-05-10T07:50:05;22.25;;;6.45;;
75234;SDS011;63817;51.228;-1.472;2023-05-10T07:52:31;33.33;;;7.32;;
75234;SDS011;63817;51.228;-1.472;2023-05-10T07:54:57;23.77;;;6.15;;
75234;SDS011;63817;51.228;-1.472;2023-05-10T07:57:22;26.23;;;6.05;;
75234;SDS011;63817;51.228;-1.472;2023-05-10T07:59:48;33.65;;;6.45;;
75234;SDS011;63817;51.228;-1.472;2023-05-10T08:02:13;37.88;;;7.22;;
75234;SDS011;63817;51.228;-1.472;2023-05-10T08:04:38;27.40;;;5.15;;
75234;SDS011;63817;51.228;-1.472;2023-05-10T08:07:04;28.30;;;5.53;;
75234;SDS011;63817;51.228;-1.472;2023-05-10T08:09:29;24.05;;;5.43;;
75234;SDS011;63817;51.228;-1.472;2023-05-10T08:11:54;27.02;;;5.75;;
75234;SDS011;63817;51.228;-1.472;2023-05-10T08:14:20;19.30;;;4.35;;
75234;SDS011;63817;51.228;-1.472;2023-05-10T08:16:45;23.67;;;4.63;;
75234;SDS011;63817;51.228;-1.472;2023-05-10T08:19:11;20.95;;;5.10;;
75234;SDS011;63817;51.228;-1.472;2023-05-10T08:21:36;21.92;;;5.13;;
75234;SDS011;63817;51.228;-1.472;2023-05-10T08:24:02;29.00;;;5.05;;
75234;SDS011;63817;51.228;-1.472;2023-05-10T08:26:27;16.08;;;4.75;;
75234;SDS011;63817;51.228;-1.472;2023-05-10T08:28:53;20.63;;;5.00;;
75234;SDS011;63817;51.228;-1.472;2023-05-10T08:31:18;24.27;;;4.18;;
75234;SDS011;63817;51.228;-1.472;2023-05-10T08:33:44;16.85;;;4.32;;
75234;SDS011;63817;51.228;-1.472;2023-05-10T08:36:09;24.10;;;5.10;;
75234;SDS011;63817;51.228;-1.472;2023-05-10T08:38:35;14.88;;;4.07;;
75234;SDS011;63817;51.228;-1.472;2023-05-10T08:41:00;33.55;;;4.82;;
75234;SDS011;63817;51.228;-1.472;2023-05-10T08:43:27;23.98;;;4.50;;
75234;SDS011;63817;51.228;-1.472;2023-05-10T08:45:54;18.23;;;4.30;;
75234;SDS011;63817;51.228;-1.472;2023-05-10T08:48:20;19.42;;;4.43;;
75234;SDS011;63817;51.228;-1.472;2023-05-10T08:50:48;21.10;;;4.47;;
75234;SDS011;63817;51.228;-1.472;2023-05-10T08:53:14;19.10;;;4.20;;
75234;SDS011;63817;51.228;-1.472;2023-05-10T08:55:41;17.48;;;3.88;;
75234;SDS011;63817;51.228;-1.472;2023-05-10T08:58:08;19.85;;;4.95;;
75234;SDS011;63817;51.228;-1.472;2023-05-10T09:00:34;22.67;;;4.45;;
75234;SDS011;63817;51.228;-1.472;2023-05-10T09:03:00;21.88;;;4.47;;
75234;SDS011;63817;51.228;-1.472;2023-05-10T09:05:28;22.17;;;4.00;;
75234;SDS011;63817;51.228;-1.472;2023-05-10T09:07:54;15.82;;;3.65;;
75234;SDS011;63817;51.228;-1.472;2023-05-10T09:10:19;19.73;;;3.65;;
75234;SDS011;63817;51.228;-1.472;2023-05-10T09:12:45;14.70;;;3.40;;
75234;SDS011;63817;51.228;-1.472;2023-05-10T09:15:11;14.82;;;3.72;;
75234;SDS011;63817;51.228;-1.472;2023-05-10T09:17:37;14.77;;;4.35;;
75234;SDS011;63817;51.228;-1.472;2023-05-10T09:20:03;13.75;;;4.03;;
75234;SDS011;63817;51.228;-1.472;2023-05-10T09:22:30;16.67;;;4.68;;
75234;SDS011;63817;51.228;-1.472;2023-05-10T09:25:08;13.57;;;3.83;;
75234;SDS011;63817;51.228;-1.472;2023-05-10T09:27:38;21.90;;;4.68;;
75234;SDS011;63817;51.228;-1.472;2023-05-10T09:30:05;17.65;;;3.83;;
75234;SDS011;63817;51.228;-1.472;2023-05-10T09:35:12;19.58;;;4.25;;
75234;SDS011;63817;51.228;-1.472;2023-05-10T09:37:46;19.13;;;3.97;;
75234;SDS011;63817;51.228;-1.472;2023-05-10T09:40:14;16.42;;;3.30;;
75234;SDS011;63817;51.228;-1.472;2023-05-10T09:43:17;12.93;;;3.65;;
75234;SDS011;63817;51.228;-1.472;2023-05-10T09:45:35;13.27;;;3.30;;
75234;SDS011;63817;51.228;-1.472;2023-05-10T09:48:02;10.88;;;2.85;;
75234;SDS011;63817;51.228;-1.472;2023-05-10T09:50:28;12.57;;;3.40;;
75234;SDS011;63817;51.228;-1.472;2023-05-10T09:53:01;17.08;;;3.70;;
75234;SDS011;63817;51.228;-1.472;2023-05-10T09:55:42;9.77;;;3.20;;
75234;SDS011;63817;51.228;-1.472;2023-05-10T09:58:12;14.13;;;3.05;;
75234;SDS011;63817;51.228;-1.472;2023-05-10T10:00:38;18.25;;;3.65;;
75234;SDS011;63817;51.228;-1.472;2023-05-10T10:03:05;13.48;;;4.20;;
75234;SDS011;63817;51.228;-1.472;2023-05-10T10:05:35;12.60;;;3.03;;
75234;SDS011;63817;51.228;-1.472;2023-05-10T10:08:04;16.33;;;3.10;;
75234;SDS011;63817;51.228;-1.472;2023-05-10T10:10:30;11.10;;;2.55;;
75234;SDS011;63817;51.228;-1.472;2023-05-10T10:12:57;15.48;;;2.88;;
75234;SDS011;63817;51.228;-1.472;2023-05-10T10:15:23;11.10;;;2.90;;
75234;SDS011;63817;51.228;-1.472;2023-05-10T10:17:48;9.43;;;2.42;;
75234;SDS011;63817;51.228;-1.472;2023-05-10T10:20:16;15.50;;;3.00;;
75234;SDS011;63817;51.228;-1.472;2023-05-10T10:22:42;13.65;;;2.85;;
75234;SDS011;63817;51.228;-1.472;2023-05-10T10:25:09;20.15;;;3.20;;
75234;SDS011;63817;51.228;-1.472;2023-05-10T10:27:39;14.88;;;2.88;;
75234;SDS011;63817;51.228;-1.472;2023-05-10T10:30:24;6.43;;;2.72;;
75234;SDS011;63817;51.228;-1.472;2023-05-10T10:35:41;8.10;;;2.58;;
75234;SDS011;63817;51.228;-1.472;2023-05-10T10:38:08;9.05;;;2.55;;
75234;SDS011;63817;51.228;-1.472;2023-05-10T10:40:34;6.53;;;2.22;;
75234;SDS011;63817;51.228;-1.472;2023-05-10T10:46:33;8.80;;;2.55;;
75234;SDS011;63817;51.228;-1.472;2023-05-10T10:48:40;9.98;;;2.95;;
75234;SDS011;63817;51.228;-1.472;2023-05-10T10:51:06;16.10;;;3.60;;
75234;SDS011;63817;51.228;-1.472;2023-05-10T10:53:32;11.63;;;3.40;;
75234;SDS011;63817;51.228;-1.472;2023-05-10T10:56:10;12.70;;;3.42;;
75234;SDS011;63817;51.228;-1.472;2023-05-10T10:58:38;11.50;;;3.53;;
75234;SDS011;63817;51.228;-1.472;2023-05-10T11:01:11;17.27;;;4.05;;
75234;SDS011;63817;51.228;-1.472;2023-05-10T11:03:37;11.68;;;2.78;;
75234;SDS011;63817;51.228;-1.472;2023-05-10T11:06:03;13.82;;;4.50;;
75234;SDS011;63817;51.228;-1.472;2023-05-10T11:08:29;12.80;;;3.28;;
75234;SDS011;63817;51.228;-1.472;2023-05-10T11:15:55;15.73;;;3.38;;
75234;SDS011;63817;51.228;-1.472;2023-05-10T11:18:28;13.98;;;3.05;;
75234;SDS011;63817;51.228;-1.472;2023-05-10T11:20:58;11.60;;;2.95;;
75234;SDS011;63817;51.228;-1.472;2023-05-10T11:24:12;12.85;;;3.55;;
75234;SDS011;63817;51.228;-1.472;2023-05-10T11:26:13;10.80;;;3.42;;
75234;SDS011;63817;51.228;-1.472;2023-05-10T11:28:42;13.07;;;2.85;;
75234;SDS011;63817;51.228;-1.472;2023-05-10T11:31:08;12.23;;;3.55;;
75234;SDS011;63817;51.228;-1.472;2023-05-10T11:36:35;11.18;;;3.33;;
75234;SDS011;63817;51.228;-1.472;2023-05-10T11:39:00;15.38;;;3.20;;
75234;SDS011;63817;51.228;-1.472;2023-05-10T11:41:27;9.90;;;2.00;;
75234;SDS011;63817;51.228;-1.472;2023-05-10T11:43:54;11.32;;;2.13;;
75234;SDS011;63817;51.228;-1.472;2023-05-10T11:46:21;5.78;;;2.03;;
75234;SDS011;63817;51.228;-1.472;2023-05-10T11:48:51;5.90;;;1.90;;
75234;SDS011;63817;51.228;-1.472;2023-05-10T11:51:20;14.95;;;2.83;;
75234;SDS011;63817;51.228;-1.472;2023-05-10T11:53:46;10.07;;;2.92;;
75234;SDS011;63817;51.228;-1.472;2023-05-10T11:56:12;7.90;;;2.58;;
75234;SDS011;63817;51.228;-1.472;2023-05-10T11:58:38;16.52;;;3.05;;
75234;SDS011;63817;51.228;-1.472;2023-05-10T12:01:05;10.90;;;2.85;;
75234;SDS011;63817;51.228;-1.472;2023-05-10T12:03:31;12.43;;;2.80;;
75234;SDS011;63817;51.228;-1.472;2023-05-10T12:05:57;15.10;;;3.10;;
75234;SDS011;63817;51.228;-1.472;2023-05-10T12:08:24;16.77;;;3.22;;
75234;SDS011;63817;51.228;-1.472;2023-05-10T12:10:51;14.20;;;3.10;;
75234;SDS011;63817;51.228;-1.472;2023-05-10T12:13:17;20.50;;;4.90;;
75234;SDS011;63817;51.228;-1.472;2023-05-10T12:15:43;20.60;;;3.28;;
75234;SDS011;63817;51.228;-1.472;2023-05-10T12:18:09;10.27;;;2.63;;
75234;SDS011;63817;51.228;-1.472;2023-05-10T12:20:36;12.45;;;3.28;;
75234;SDS011;63817;51.228;-1.472;2023-05-10T12:23:02;11.23;;;3.22;;
75234;SDS011;63817;51.228;-1.472;2023-05-10T12:25:32;9.35;;;2.17;;
75234;SDS011;63817;51.228;-1.472;2023-05-10T12:27:58;10.13;;;2.63;;
75234;SDS011;63817;51.228;-1.472;2023-05-10T12:30:29;15.63;;;2.60;;
75234;SDS011;63817;51.228;-1.472;2023-05-10T12:33:00;12.77;;;2.53;;
75234;SDS011;63817;51.228;-1.472;2023-05-10T12:35:29;11.18;;;2.40;;
75234;SDS011;63817;51.228;-1.472;2023-05-10T12:37:55;20.05;;;2.90;;
75234;SDS011;63817;51.228;-1.472;2023-05-10T12:40:20;13.73;;;3.20;;
75234;SDS011;63817;51.228;-1.472;2023-05-10T12:42:46;14.88;;;2.70;;
75234;SDS011;63817;51.228;-1.472;2023-05-10T12:45:12;9.80;;;3.00;;
75234;SDS011;63817;51.228;-1.472;2023-05-10T12:47:37;5.35;;;1.88;;
75234;SDS011;63817;51.228;-1.472;2023-05-10T12:50:03;12.20;;;3.42;;
75234;SDS011;63817;51.228;-1.472;2023-05-10T12:52:29;8.15;;;1.98;;
75234;SDS011;63817;51.228;-1.472;2023-05-10T12:54:57;10.48;;;2.25;;
75234;SDS011;63817;51.228;-1.472;2023-05-10T12:57:22;7.63;;;1.95;;
75234;SDS011;63817;51.228;-1.472;2023-05-10T12:59:48;8.88;;;2.40;;
75234;SDS011;63817;51.228;-1.472;2023-05-10T13:02:14;11.35;;;2.78;;
75234;SDS011;63817;51.228;-1.472;2023-05-10T13:04:41;7.88;;;2.65;;
75234;SDS011;63817;51.228;-1.472;2023-05-10T13:07:07;5.25;;;2.20;;
75234;SDS011;63817;51.228;-1.472;2023-05-10T13:09:32;7.35;;;2.33;;
75234;SDS011;63817;51.228;-1.472;2023-05-10T13:11:58;10.07;;;2.40;;
75234;SDS011;63817;51.228;-1.472;2023-05-10T13:14:23;12.57;;;3.22;;
75234;SDS011;63817;51.228;-1.472;2023-05-10T13:16:50;14.40;;;2.72;;
75234;SDS011;63817;51.228;-1.472;2023-05-10T13:19:16;9.45;;;2.67;;
75234;SDS011;63817;51.228;-1.472;2023-05-10T13:21:42;7.57;;;2.13;;
75234;SDS011;63817;51.228;-1.472;2023-05-10T13:24:09;10.63;;;2.58;;
75234;SDS011;63817;51.228;-1.472;2023-05-10T13:26:35;7.90;;;2.17;;
75234;SDS011;63817;51.228;-1.472;2023-05-10T13:29:01;7.28;;;2.33;;
75234;SDS011;63817;51.228;-1.472;2023-05-10T13:31:27;7.57;;;1.80;;
75234;SDS011;63817;51.228;-1.472;2023-05-10T13:33:52;7.68;;;1.63;;
75234;SDS011;63817;51.228;-1.472;2023-05-10T13:36:17;10.20;;;2.08;;
75234;SDS011;63817;51.228;-1.472;2023-05-10T13:38:43;9.20;;;1.95;;
75234;SDS011;63817;51.228;-1.472;2023-05-10T13:41:08;9.35;;;1.80;;
75234;SDS011;63817;51.228;-1.472;2023-05-10T13:43:35;10.02;;;2.20;;
75234;SDS011;63817;51.228;-1.472;2023-05-10T13:46:01;10.75;;;2.33;;
75234;SDS011;63817;51.228;-1.472;2023-05-10T13:48:26;11.82;;;3.20;;
75234;SDS011;63817;51.228;-1.472;2023-05-10T13:50:52;5.25;;;1.70;;
75234;SDS011;63817;51.228;-1.472;2023-05-10T13:53:17;8.88;;;2.03;;
75234;SDS011;63817;51.228;-1.472;2023-05-10T13:55:42;9.88;;;2.15;;
75234;SDS011;63817;51.228;-1.472;2023-05-10T13:58:08;15.98;;;2.90;;
75234;SDS011;63817;51.228;-1.472;2023-05-10T14:00:33;15.20;;;3.40;;
75234;SDS011;63817;51.228;-1.472;2023-05-10T14:02:58;14.23;;;2.80;;
75234;SDS011;63817;51.228;-1.472;2023-05-10T14:05:24;9.95;;;2.70;;
75234;SDS011;63817;51.228;-1.472;2023-05-10T14:07:50;13.02;;;2.85;;
75234;SDS011;63817;51.228;-1.472;2023-05-10T14:10:15;12.05;;;2.78;;
75234;SDS011;63817;51.228;-1.472;2023-05-10T14:12:41;15.60;;;3.60;;
75234;SDS011;63817;51.228;-1.472;2023-05-10T14:15:07;14.00;;;3.03;;
75234;SDS011;63817;51.228;-1.472;2023-05-10T14:17:33;11.40;;;2.72;;
75234;SDS011;63817;51.228;-1.472;2023-05-10T14:19:58;8.40;;;1.55;;
75234;SDS011;63817;51.228;-1.472;2023-05-10T14:22:23;6.95;;;1.80;;
75234;SDS011;63817;51.228;-1.472;2023-05-10T14:24:49;12.45;;;1.92;;
75234;SDS011;63817;51.228;-1.472;2023-05-10T14:27:15;7.18;;;2.10;;
75234;SDS011;63817;51.228;-1.472;2023-05-10T14:29:41;6.20;;;2.03;;
75234;SDS011;63817;51.228;-1.472;2023-05-10T14:32:06;8.40;;;2.20;;
75234;SDS011;63817;51.228;-1.472;2023-05-10T14:34:32;8.07;;;1.88;;
75234;SDS011;63817;51.228;-1.472;2023-05-10T14:36:57;5.28;;;1.73;;
75234;SDS011;63817;51.228;-1.472;2023-05-10T14:39:23;8.23;;;2.20;;
75234;SDS011;63817;51.228;-1.472;2023-05-10T14:41:49;4.70;;;1.20;;
75234;SDS011;63817;51.228;-1.472;2023-05-10T14:44:16;7.38;;;1.30;;
75234;SDS011;63817;51.228;-1.472;2023-05-10T14:46:41;6.25;;;1.17;;
75234;SDS011;63817;51.228;-1.472;2023-05-10T14:49:07;6.13;;;1.55;;